Terminal Aerodrome Forecast
Issued by NWS Green Bay, WI

Home | Current Version | Previous Version | Graphics & Text | Print | Product List | Glossary On
Versions: 1 2 3 4 5 6 7 8 9 10 11 12 13 14 15 16 17 18 19 20 21 22 23 24 25 26 27 28
000
FTUS43 KGRB 241755 CCA
TAFGRB
TAF COR
KGRB 241755Z 2418/2518 33006KT P6SM SCT012 OVC022
      TEMPO 2418/2422 BKN015
     FM242200 03004KT P6SM OVC015 PROB30 2505/2507 3SM -DZ
     FM250700 04006KT 3SM -SNDZ BKN008
     FM250900 04004KT 1SM -SN OVC006
     FM251200 04008G13KT 3/4SM -SN OVC004=

USA.gov is the U.S. government's official web portal to all federal, state and local government web resources and services.